Latest Weather Observations for Sheoaks

IDV60801

Issued at 8:35 pm EST Wednesday 27 August 2014 (issued every 30 minutes, with the page automatically refreshed every 10 minutes)

About weather observations | Map of weather stations | Latest weather observations for VIC | Other Formats
Station Details ID: 087168 Name: SHEOAKS Lat: -37.91 Lon: 144.13 Height: 236.7 m
Data from the previous 72 hours. | See also: Recent months at Sheoaks
Date/Time
EST
Temp
°C
App
Temp
°C
Dew
Point
Rel
Hum
%
Delta-T
°C
Wind Press
QNH
hPa
Press
MSL
hPa
Rain
since 9 am
mm
Dir
 
Spd
km/h
Gust
km/h
Spd
kts
Gust
kts
27/08:30pm 7.6 5.6 7.3 98 0.1 N 7 7 4 4 1028.6 1029.0 0.0
27/08:00pm 8.3 6.5 8.0 98 0.1 N 7 7 4 4 1028.3 1028.7 0.0
27/07:30pm 9.6 8.7 9.3 98 0.2 ENE 4 4 2 2 1028.1 1028.5 0.0
27/07:00pm 10.6 10.3 10.1 97 0.3 ESE 2 4 1 2 1028.0 1028.4 0.0
27/06:30pm 10.6 9.8 9.5 93 0.6 ESE 4 6 2 3 1027.8 1028.2 0.0
27/06:00pm 12.0 10.1 10.4 90 0.8 ESE 11 13 6 7 1027.6 1028.0 0.0
27/05:30pm 14.8 14.0 8.3 65 3.3 S 2 4 1 2 1027.4 1027.8 0.0
27/05:00pm 15.5 14.0 8.5 63 3.6 SSE 6 7 3 4 1027.3 1027.7 0.0
27/04:30pm 16.1 14.3 8.1 59 4.1 SSW 7 11 4 6 1027.3 1027.7 0.0
27/04:00pm 16.3 14.5 7.8 57 4.3 SSW 7 11 4 6 1027.1 1027.5 0.0
27/03:30pm 16.9 14.9 7.3 53 4.9 WSW 7 11 4 6 1027.2 1027.6 0.0
27/03:00pm 16.9 14.9 7.3 53 4.8 WSW 7 11 4 6 1027.2 1027.6 0.0
27/02:30pm 16.4 14.8 8.9 61 3.9 SSW 7 15 4 8 1027.0 1027.4 0.0
27/02:00pm 16.5 15.1 9.4 63 3.7 SW 7 13 4 7 1027.1 1027.5 0.0
27/01:30pm 16.1 13.8 7.6 57 4.3 SW 9 13 5 7 1027.3 1027.7 0.0
27/01:00pm 15.9 14.1 9.3 65 3.4 SW 9 17 5 9 1027.6 1028.0 0.0
27/12:30pm 16.0 14.7 9.9 67 3.2 WSW 7 15 4 8 1027.9 1028.3 0.0
27/12:00pm 15.9 14.3 8.6 62 3.7 SW 7 13 4 7 1028.1 1028.5 0.0
27/11:30am 15.5 14.2 9.2 66 3.3 WSW 6 9 3 5 1028.3 1028.7 0.0
27/11:00am 14.8 13.6 10.2 74 2.4 SSW 7 13 4 7 1028.4 1028.8 0.0
27/10:30am 14.5 13.7 10.9 79 1.9 S 6 7 3 4 1028.4 1028.8 0.0
27/10:00am 13.5 13.4 10.7 83 1.5 SSW 2 6 1 3 1028.4 1028.8 0.0
27/09:30am 11.5 11.4 9.6 88 1.0 CALM 0 2 0 1 1028.3 1028.7 0.0
27/09:00am 10.7 9.6 8.3 85 1.2 NW 4 7 2 4 1028.1 1028.5 0.2
27/08:30am 8.8 6.9 7.4 91 0.7 N 7 9 4 5 1027.9 1028.3 0.2
27/08:00am 6.8 4.2 6.1 95 0.3 N 9 11 5 6 1027.6 1028.0 0.2
27/07:30am 5.6 2.4 5.2 97 0.2 N 11 11 6 6 1027.3 1027.7 0.2
27/07:00am 5.0 1.7 4.6 97 0.2 N 11 13 6 7 1027.0 1027.4 0.2
27/06:30am 5.3 2.5 5.0 98 0.1 N 9 9 5 5 1026.8 1027.1 0.2
27/06:00am 5.4 2.6 5.1 98 0.1 N 9 11 5 6 1026.6 1026.9 0.2
27/05:30am 5.6 2.8 5.3 98 0.1 N 9 9 5 5 1026.5 1026.8 0.2
27/05:00am 5.6 2.8 5.3 98 0.1 N 9 9 5 5 1026.5 1026.8 0.2
27/04:30am 5.8 3.1 5.7 99 0.0 N 9 9 5 5 1026.4 1026.7 0.2
27/04:00am 5.8 4.1 5.7 99 0.0 NNW 4 7 2 4 1026.4 1026.7 0.2
27/03:30am 5.7 3.4 5.6 99 0.0 N 7 11 4 6 1026.2 1026.5 0.2
27/03:00am 6.0 3.7 5.9 99 0.0 N 7 9 4 5 1026.2 1026.5 0.2
27/02:30am 6.2 3.6 6.1 99 0.0 NNW 9 11 5 6 1026.4 1026.7 0.2
27/02:00am 6.9 5.0 6.9 100 0.0 W 6 9 3 5 1026.6 1026.9 0.2
27/01:30am 6.4 3.9 6.4 100 0.0 N 9 13 5 7 1026.2 1026.5 0.2
27/01:00am 6.2 3.6 6.2 100 0.0 N 9 11 5 6 1026.1 1026.4 0.0
27/12:30am 6.5 4.4 6.5 100 0.0 N 7 9 4 5 1026.2 1026.5 0.0
27/12:00am 6.6 4.5 6.6 100 0.0 N 7 11 4 6 1026.3 1026.6 0.0
 
Date/Time
EST
Temp
°C
App
Temp
°C
Dew
Point
Rel
Hum
%
Delta-T
°C
Wind Press
QNH
hPa
Press
MSL
hPa
Rain
since 9 am
mm
Dir
 
Spd
km/h
Gust
km/h
Spd
kts
Gust
kts
26/11:30pm 7.3 5.3 7.3 100 0.0 NNW 7 9 4 5 1026.5 1026.8 0.0
26/11:00pm 8.2 6.5 8.2 100 0.0 N 7 9 4 5 1026.5 1026.8 0.0
26/10:30pm 9.0 7.6 9.0 100 0.0 N 6 7 3 4 1026.6 1026.9 0.0
26/10:00pm 9.6 8.8 9.6 100 0.0 WNW 4 6 2 3 1026.9 1027.3 0.0
26/09:30pm 10.1 9.4 10.1 100 0.0 W 4 6 2 3 1026.9 1027.3 0.0
26/09:00pm 10.3 10.1 10.3 100 0.0 N 2 4 1 2 1026.8 1027.1 0.0
26/08:30pm 10.6 9.6 10.4 99 0.1 NNE 6 7 3 4 1026.7 1027.0 0.0
26/08:00pm 11.2 11.1 10.9 98 0.2 NE 2 4 1 2 1026.8 1027.1 0.0
26/07:30pm 11.4 11.4 11.1 98 0.2 E 2 6 1 3 1026.7 1027.0 0.0
26/07:00pm 11.6 11.3 11.3 98 0.2 SE 4 6 2 3 1026.5 1026.8 0.0
26/06:30pm 11.5 11.1 11.0 97 0.3 SE 4 6 2 3 1026.3 1026.6 0.0
26/06:00pm 11.5 10.1 10.9 96 0.3 SE 9 13 5 7 1026.1 1026.4 0.0
26/05:30pm 11.9 10.0 10.6 92 0.7 ESE 11 15 6 8 1026.0 1026.3 0.0
26/05:00pm 12.6 10.8 11.0 90 0.8 SSE 11 19 6 10 1025.9 1026.2 0.0
26/04:30pm 14.1 12.0 11.1 82 1.6 SE 13 19 7 10 1025.8 1026.1 0.0
26/04:00pm 14.6 11.7 9.6 72 2.6 ESE 15 20 8 11 1025.8 1026.1 0.0
26/03:30pm 14.7 11.9 10.1 74 2.4 ESE 15 20 8 11 1025.8 1026.1 0.0
26/03:00pm 14.5 12.4 9.7 73 2.5 SE 11 17 6 9 1025.9 1026.2 0.0
26/02:30pm 14.8 12.4 10.2 74 2.4 ESE 13 17 7 9 1026.2 1026.5 0.0
26/02:00pm 14.5 12.4 9.9 74 2.4 ESE 11 17 6 9 1026.3 1026.6 0.0
26/01:30pm 13.6 12.0 10.2 80 1.8 SE 9 15 5 8 1026.4 1026.7 0.0
26/01:00pm 13.2 11.9 10.0 81 1.7 ESE 7 15 4 8 1026.9 1027.3 0.0
26/12:30pm 12.7 11.5 10.4 86 1.2 SSE 7 11 4 6 1027.3 1027.7 0.0
26/12:00pm 11.5 10.4 9.8 89 0.9 S 6 9 3 5 1027.6 1028.0 0.0
26/11:30am 11.9 10.7 10.3 90 0.8 ESE 7 11 4 6 1028.0 1028.4 0.0
26/11:00am 11.0 9.4 10.2 95 0.4 ESE 9 13 5 7 1028.2 1028.6 0.0
26/10:30am 10.9 9.7 10.3 96 0.3 ESE 7 13 4 7 1028.3 1028.7 0.0
26/10:00am 10.4 8.4 10.2 99 0.1 E 11 15 6 8 1028.4 1028.8 0.0
26/09:30am 10.0 7.6 10.0 100 0.0 ESE 13 19 7 10 1028.4 1028.8 0.0
26/09:00am 9.8 7.7 9.8 100 0.0 E 11 15 6 8 1028.6 1029.0 0.0
26/08:30am 9.7 8.0 9.7 100 0.0 ESE 9 15 5 8 1028.6 1029.0 0.0
26/08:00am 9.6 7.5 9.6 100 0.0 ESE 11 17 6 9 1028.5 1028.9 0.0
26/07:30am 9.4 7.6 9.4 100 0.0 E 9 17 5 9 1028.0 1028.4 0.0
26/07:00am 9.4 8.0 9.4 100 0.0 ESE 7 13 4 7 1027.9 1028.3 0.0
26/06:30am 9.4 8.0 9.4 100 0.0 ESE 7 11 4 6 1027.7 1028.1 0.0
26/06:00am 9.2 7.7 9.2 100 0.0 ESE 7 13 4 7 1027.6 1028.0 0.0
26/05:30am 9.0 7.6 9.0 100 0.0 ESE 6 9 3 5 1027.5 1027.9 0.0
26/05:00am 9.0 7.6 9.0 100 0.0 SE 6 7 3 4 1027.4 1027.8 0.0
26/04:30am 9.2 7.3 9.2 100 0.0 ESE 9 15 5 8 1027.4 1027.8 0.0
26/04:00am 9.2 7.3 9.2 100 0.0 ESE 9 13 5 7 1027.6 1028.0 0.0
26/03:30am 9.0 7.1 9.0 100 0.0 ESE 9 11 5 6 1027.6 1028.0 0.0
26/03:00am 9.2 7.3 9.2 100 0.0 SE 9 15 5 8 1027.8 1028.2 0.0
26/02:30am 9.3 7.5 9.3 100 0.0 ESE 9 13 5 7 1028.0 1028.4 0.0
26/02:00am 9.3 6.7 9.3 100 0.0 ESE 13 19 7 10 1028.2 1028.6 0.0
26/01:30am 9.5 8.1 9.5 100 0.0 ESE 7 11 4 6 1028.4 1028.8 0.0
26/01:00am 9.3 8.0 9.3 100 0.0 SE 6 11 3 6 1028.6 1029.0 0.0
26/12:30am 9.2 7.7 9.2 100 0.0 SSE 7 13 4 7 1028.7 1029.1 0.0
26/12:00am 9.1 7.7 9.0 99 0.0 SSE 6 7 3 4 1028.7 1029.1 0.0
 
Date/Time
EST
Temp
°C
App
Temp
°C
Dew
Point
Rel
Hum
%
Delta-T
°C
Wind Press
QNH
hPa
Press
MSL
hPa
Rain
since 9 am
mm
Dir
 
Spd
km/h
Gust
km/h
Spd
kts
Gust
kts
25/11:30pm 9.3 8.4 9.2 99 0.0 SSE 4 7 2 4 1029.0 1029.4 0.0
25/11:00pm 9.3 8.0 9.2 99 0.0 S 6 7 3 4 1029.0 1029.4 0.0
25/10:30pm 9.1 8.5 8.8 98 0.1 ESE 2 4 1 2 1029.1 1029.5 0.0
25/10:00pm 9.3 7.9 9.0 98 0.1 S 6 9 3 5 1029.3 1029.6 0.0
25/09:30pm 9.5 8.2 9.2 98 0.2 SSE 6 9 3 5 1029.4 1029.7 0.0
25/09:00pm 9.3 8.7 9.0 98 0.1 SSE 2 6 1 3 1029.3 1029.6 0.0
25/08:30pm 9.5 8.1 9.0 97 0.2 SSE 6 9 3 5 1029.1 1029.5 0.0
25/08:00pm 9.7 8.2 9.1 96 0.3 SSE 7 11 4 6 1029.0 1029.4 0.0
25/07:30pm 9.8 8.3 9.0 95 0.4 S 7 11 4 6 1028.8 1029.2 0.0
25/07:00pm 9.9 8.3 8.8 93 0.5 SSE 7 9 4 5 1028.6 1029.0 0.0
25/06:30pm 10.2 8.2 8.6 90 0.8 SSE 9 13 5 7 1028.4 1028.8 0.0
25/06:00pm 10.5 8.4 8.4 87 1.0 SSE 9 15 5 8 1028.1 1028.5 0.0
25/05:30pm 10.8 8.4 8.6 86 1.1 SSE 11 17 6 9 1027.8 1028.2 0.0
25/05:00pm 11.0 8.2 8.6 85 1.2 SSE 13 19 7 10 1027.5 1027.9 0.0
25/04:30pm 11.4 8.2 8.4 82 1.5 SE 15 22 8 12 1027.3 1027.7 0.0
25/04:00pm 11.5 7.9 8.2 80 1.6 SSE 17 26 9 14 1027.1 1027.5 0.0
25/03:30pm 12.2 8.8 9.2 82 1.5 SE 17 28 9 15 1026.8 1027.1 0.0
25/03:00pm 12.4 9.6 10.1 86 1.2 SSE 15 22 8 12 1026.8 1027.1 0.0
25/02:30pm 11.8 9.6 9.5 86 1.2 SSE 11 20 6 11 1026.7 1027.0 0.0
25/02:00pm 11.0 8.6 9.9 93 0.6 SSE 13 19 7 10 1026.8 1027.1 0.0
25/01:30pm 10.8 8.4 9.9 94 0.5 SSE 13 20 7 11 1026.8 1027.1 0.0
25/01:00pm 10.6 8.2 10.0 96 0.3 SSE 13 22 7 12 1026.9 1027.3 0.0
25/12:30pm 10.5 8.0 9.7 95 0.4 SSE 13 22 7 12 1027.0 1027.4 0.0
25/12:00pm 10.6 7.1 10.1 97 0.3 S 19 26 10 14 1027.0 1027.4 0.0
25/11:30am 10.2 6.5 9.6 96 0.3 S 19 28 10 15 1027.2 1027.6 0.0
25/11:00am 10.5 7.3 10.0 97 0.3 SSE 17 28 9 15 1027.2 1027.6 0.0
25/10:30am 10.4 7.0 10.4 100 0.0 S 19 33 10 18 1027.0 1027.4 0.0
25/10:00am 10.2 5.7 10.2 100 0.0 SSW 24 37 13 20 1026.8 1027.1 0.0
25/09:30am 10.1 7.3 10.1 100 0.0 SW 15 24 8 13 1026.6 1026.9 0.0
25/09:00am 9.9 7.5 9.9 100 0.0 SW 13 24 7 13 1026.5 1026.8 0.0
25/08:30am 9.8 7.7 9.8 100 0.0 WSW 11 22 6 12 1026.3 1026.6 0.0
25/08:00am 9.5 6.6 9.5 100 0.0 WSW 15 26 8 14 1026.0 1026.3 0.0
25/07:30am 9.4 6.4 9.4 100 0.0 WSW 15 22 8 12 1025.6 1025.9 0.0
25/07:00am 9.3 6.3 9.3 100 0.0 WSW 15 24 8 13 1025.3 1025.6 0.0
25/06:30am 9.2 6.2 9.2 100 0.0 WSW 15 22 8 12 1025.0 1025.3 0.0
25/06:00am 9.3 5.9 9.2 99 0.0 W 17 28 9 15 1024.6 1025.0 0.0
25/05:30am 9.1 5.7 9.0 99 0.0 W 17 24 9 13 1024.3 1024.7 0.0
25/05:00am 9.2 5.4 8.9 98 0.1 W 19 26 10 14 1024.3 1024.7 0.0
25/04:30am 9.3 5.4 8.8 97 0.2 W 19 30 10 16 1024.1 1024.5 0.0
25/04:00am 9.5 6.1 9.0 97 0.2 W 17 28 9 15 1024.1 1024.5 0.0
25/03:30am 9.4 5.9 8.9 97 0.2 W 17 26 9 14 1024.2 1024.6 0.0
25/03:00am 9.3 5.5 9.0 98 0.1 W 19 26 10 14 1024.2 1024.6 0.0
25/02:30am 9.1 5.2 8.8 98 0.1 W 19 26 10 14 1024.5 1024.9 0.0
25/02:00am 9.3 5.4 8.8 97 0.2 W 19 28 10 15 1024.5 1024.9 0.0
25/01:30am 9.3 5.4 8.8 97 0.2 W 19 28 10 15 1024.9 1025.2 0.0
25/01:00am 9.2 5.3 8.6 96 0.3 W 19 28 10 15 1025.1 1025.4 0.0
25/12:30am 9.1 5.0 8.5 96 0.3 W 20 35 11 19 1025.2 1025.5 0.0
25/12:00am 9.2 5.0 8.4 95 0.4 WNW 20 30 11 16 1025.3 1025.6 0.0
 
Date/Time
EST
Temp
°C
App
Temp
°C
Dew
Point
Rel
Hum
%
Delta-T
°C
Wind Press
QNH
hPa
Press
MSL
hPa
Rain
since 9 am
mm
Dir
 
Spd
km/h
Gust
km/h
Spd
kts
Gust
kts
24/11:30pm 9.1 4.2 8.3 95 0.4 WNW 24 41 13 22 1025.2 1025.5 0.0
24/11:00pm 9.3 4.3 7.9 91 0.7 WNW 24 37 13 20 1025.4 1025.7 0.0
24/10:30pm 9.5 5.2 7.8 89 0.8 WNW 20 35 11 19 1025.7 1026.0 0.0
24/10:00pm 9.6 4.9 7.9 89 0.8 WNW 22 33 12 18 1025.9 1026.2 0.0
24/09:30pm 9.6 5.2 7.5 87 1.0 WNW 20 35 11 19 1025.8 1026.1 0.0
24/09:00pm 9.6 4.5 7.5 87 1.0 WNW 24 37 13 20 1025.8 1026.1 0.0

Other Formats:

Comma delimited format used in spreadsheet applications
http://www.bom.gov.au/fwo/IDV60801/IDV60801.94863.axf

JavaScript Object Notation format (JSON) in row-major order
http://www.bom.gov.au/fwo/IDV60801/IDV60801.94863.json